Time;durP1;ratioP1;P1;durP2;ratioP2;P2;SDS_P1;SDS_P2;PMS_P1;PMS_P2;Temp;Humidity;BMP_temperature;BMP_pressure;BME280_temperature;BME280_humidity;BME280_pressure;Samples;Min_cycle;Max_cycle;Signal;HPM_P1;HPM_P2
2022/10/06 00:00:44;;;;;;;;;;;14.60;99.90;;;;;;5015309;28;19933;-71
2022/10/06 00:03:11;;;;;;;;;;;14.60;99.90;;;;;;5016045;28;19991;-70
2022/10/06 00:05:38;;;;;;;;;;;14.70;99.90;;;;;;5016240;28;20357;-70
2022/10/06 00:08:04;;;;;;;;;;;14.70;99.90;;;;;;5015298;28;19933;-70
2022/10/06 00:10:31;;;;;;;;;;;14.70;99.90;;;;;;5014254;28;19991;-71
2022/10/06 00:12:59;;;;;;;;;;;14.80;99.90;;;;;;5016146;28;20364;-70
2022/10/06 00:15:27;;;;;;;;;;;14.80;99.90;;;;;;5016886;28;19991;-70
2022/10/06 00:17:54;;;;;;;;;;;14.80;99.90;;;;;;5015016;28;19933;-70
2022/10/06 00:20:22;;;;;;;;;;;14.70;99.90;;;;;;5017299;28;19933;-71
2022/10/06 00:22:48;;;;;;;;;;;14.70;99.90;;;;;;5019042;28;20501;-71
2022/10/06 00:25:17;;;;;;;;;;;14.60;99.90;;;;;;5019680;28;19940;-71
2022/10/06 00:27:46;;;;;;;;;;;14.60;99.90;;;;;;5018672;28;20023;-71
2022/10/06 00:30:15;;;;;;;;;;;14.50;99.90;;;;;;5021708;28;21182;-71
2022/10/06 00:32:49;;;;;;;;;;;14.40;99.90;;;;;;5016817;28;19933;-71
2022/10/06 00:35:16;;;;;;;;;;;14.30;99.90;;;;;;5020688;28;20303;-71
2022/10/06 00:37:42;;;;;;;;;;;14.20;99.90;;;;;;5036612;28;19940;-71
2022/10/06 00:40:10;;;;;;;;;;;14.20;99.90;;;;;;5020559;28;20766;-71
2022/10/06 00:42:48;;;;;;;;;;;14.10;99.90;;;;;;5021037;28;19937;-71
2022/10/06 00:45:17;;;;;;;;;;;14.10;99.90;;;;;;5024944;28;19933;-71
2022/10/06 00:47:45;;;;;;;;;;;14.10;99.90;;;;;;5008701;28;19933;-71
2022/10/06 00:50:12;;;;;;;;;;;14.10;99.90;;;;;;5019738;28;19933;-71
2022/10/06 00:52:39;;;;;;;;;;;14.10;99.90;;;;;;5017095;28;19933;-71
2022/10/06 00:55:08;;;;;;;;;;;14.00;99.90;;;;;;5568919;22;19912;-71
2022/10/06 00:57:35;;;;;;;;;;;14.00;99.90;;;;;;5085053;28;19939;-71
2022/10/06 01:00:02;;;;;;;;;;;14.00;99.90;;;;;;5085277;28;20560;-71
2022/10/06 01:02:33;;;;;;;;;;;13.90;99.90;;;;;;5084884;28;20573;-71
2022/10/06 01:05:02;;;;;;;;;;;14.60;99.90;;;;;;5067472;28;19940;-71
2022/10/06 01:07:29;;;;;;;;;;;13.80;99.90;;;;;;5064500;28;19947;-71
2022/10/06 01:09:57;;;;;;;;;;;13.70;99.90;;;;;;5080099;22;19941;-76
2022/10/06 01:12:25;;;;;;;;;;;13.70;99.90;;;;;;5057422;28;19963;-76
2022/10/06 01:14:54;;;;;;;;;;;13.70;99.90;;;;;;5056317;28;19944;-75
2022/10/06 01:17:23;;;;;;;;;;;13.70;99.90;;;;;;5060765;28;19967;-75
2022/10/06 01:19:54;;;;;;;;;;;13.70;99.90;;;;;;5060149;28;19935;-77
2022/10/06 01:22:27;;;;;;;;;;;13.70;99.90;;;;;;5054476;28;19936;-77
2022/10/06 01:24:53;;;;;;;;;;;13.70;99.90;;;;;;5053406;28;19939;-75
2022/10/06 01:27:21;;;;;;;;;;;13.70;99.90;;;;;;5057547;28;20915;-78
2022/10/06 01:29:50;;;;;;;;;;;13.70;99.90;;;;;;5069406;28;20549;-76
2022/10/06 01:32:17;;;;;;;;;;;13.70;99.90;;;;;;5056427;28;19944;-75
2022/10/06 01:34:43;;;;;;;;;;;13.70;99.90;;;;;;5055239;28;19946;-73
2022/10/06 01:37:10;;;;;;;;;;;13.70;99.90;;;;;;5054320;28;20107;-73
2022/10/06 01:39:39;;;;;;;;;;;13.80;99.90;;;;;;5067465;28;20008;-73
2022/10/06 01:42:05;;;;;;;;;;;13.80;99.90;;;;;;5054172;28;20344;-73
2022/10/06 01:44:32;;;;;;;;;;;13.80;99.90;;;;;;5069288;28;19932;-73
2022/10/06 01:46:59;;;;;;;;;;;13.80;99.90;;;;;;5055733;28;19936;-73
2022/10/06 01:49:26;;;;;;;;;;;13.70;99.90;;;;;;5054853;28;19947;-73
2022/10/06 01:51:53;;;;;;;;;;;13.70;99.90;;;;;;5052829;28;19955;-73
2022/10/06 01:54:20;;;;;;;;;;;13.70;99.90;;;;;;5074564;28;19939;-73
2022/10/06 01:56:48;;;;;;;;;;;13.60;99.90;;;;;;5058632;28;19984;-73
2022/10/06 01:59:14;;;;;;;;;;;13.60;99.90;;;;;;5075773;28;20001;-73
2022/10/06 02:01:41;;;;;;;;;;;13.50;99.90;;;;;;5058835;28;19943;-73
2022/10/06 02:04:08;;;;;;;;;;;13.50;99.90;;;;;;5053754;28;19969;-72
2022/10/06 02:06:35;;;;;;;;;;;13.50;99.90;;;;;;5059015;28;20058;-73
2022/10/06 02:09:03;;;;;;;;;;;13.40;99.90;;;;;;5056181;28;19940;-73
2022/10/06 02:11:30;;;;;;;;;;;13.40;99.90;;;;;;5062080;28;20019;-72
2022/10/06 02:14:00;;;;;;;;;;;13.40;99.90;;;;;;5060604;28;19939;-72
2022/10/06 02:16:27;;;;;;;;;;;13.40;99.90;;;;;;5057692;28;19929;-72
2022/10/06 02:18:55;;;;;;;;;;;13.40;99.90;;;;;;5072813;28;19951;-72
2022/10/06 02:21:23;;;;;;;;;;;13.30;99.90;;;;;;5057801;28;19939;-73
2022/10/06 02:23:50;;;;;;;;;;;13.30;99.90;;;;;;5055104;28;20454;-72
2022/10/06 02:26:17;;;;;;;;;;;13.40;99.90;;;;;;5058184;28;19951;-72
2022/10/06 02:28:45;;;;;;;;;;;13.70;99.90;;;;;;5056471;28;19933;-72
2022/10/06 02:31:15;;;;;;;;;;;13.40;99.90;;;;;;5056415;28;20328;-73
2022/10/06 02:33:43;;;;;;;;;;;13.40;99.90;;;;;;5075494;28;19950;-73
2022/10/06 02:36:11;;;;;;;;;;;13.40;99.90;;;;;;5057423;28;19951;-73
2022/10/06 02:38:38;;;;;;;;;;;13.50;99.90;;;;;;5057482;28;19928;-73
2022/10/06 02:41:07;;;;;;;;;;;13.40;99.90;;;;;;5058091;28;19955;-73
2022/10/06 02:43:35;;;;;;;;;;;13.40;99.90;;;;;;5056282;28;19943;-73
2022/10/06 02:46:04;;;;;;;;;;;13.40;99.90;;;;;;5056753;28;20078;-73
2022/10/06 02:48:33;;;;;;;;;;;13.40;99.90;;;;;;5055886;28;19955;-73
2022/10/06 02:51:01;;;;;;;;;;;13.40;99.90;;;;;;5054947;28;20385;-73
2022/10/06 02:53:28;;;;;;;;;;;13.30;99.90;;;;;;5057917;28;19932;-73
2022/10/06 02:55:59;;;;;;;;;;;13.30;99.90;;;;;;5056821;28;19939;-73
2022/10/06 02:58:26;;;;;;;;;;;13.30;99.90;;;;;;5058321;28;19932;-71
2022/10/06 03:00:53;;;;;;;;;;;13.30;99.90;;;;;;5057398;28;19972;-72
2022/10/06 03:03:19;;;;;;;;;;;13.30;99.90;;;;;;5058444;28;20024;-72
2022/10/06 03:05:48;;;;;;;;;;;13.30;99.90;;;;;;5054060;28;19932;-72
2022/10/06 03:08:14;;;;;;;;;;;13.30;99.90;;;;;;5056735;28;19933;-72
2022/10/06 03:10:41;;;;;;;;;;;13.30;99.90;;;;;;5057527;28;20302;-72
2022/10/06 03:13:08;;;;;;;;;;;13.30;99.90;;;;;;5058113;28;20571;-72
2022/10/06 03:15:35;;;;;;;;;;;13.20;99.90;;;;;;5056250;28;19956;-72
2022/10/06 03:20:43;;;;;;;;;;;13.20;99.90;;;;;;5441535;22;19977;-73
2022/10/06 03:23:12;;;;;;;;;;;13.10;99.90;;;;;;5037281;28;19943;-73
2022/10/06 03:25:39;;;;;;;;;;;13.10;99.90;;;;;;5036135;28;19979;-74
2022/10/06 03:28:05;;;;;;;;;;;13.00;99.90;;;;;;5056559;28;19967;-73
2022/10/06 03:30:32;;;;;;;;;;;13.00;99.90;;;;;;5058344;28;20715;-73
2022/10/06 03:33:00;;;;;;;;;;;12.90;99.90;;;;;;5079848;22;19939;-70
2022/10/06 03:35:27;;;;;;;;;;;14.40;99.90;;;;;;5055330;28;20495;-70
2022/10/06 03:37:54;;;;;;;;;;;12.90;99.90;;;;;;5056866;28;19937;-70
2022/10/06 03:40:22;;;;;;;;;;;12.80;99.90;;;;;;5053877;28;20009;-70
2022/10/06 03:42:49;;;;;;;;;;;13.10;99.90;;;;;;5057414;28;19937;-70
2022/10/06 03:45:16;;;;;;;;;;;12.70;99.90;;;;;;5037409;28;20007;-70
2022/10/06 03:47:43;;;;;;;;;;;12.80;99.90;;;;;;5054620;28;19925;-70
2022/10/06 03:50:10;;;;;;;;;;;12.70;99.90;;;;;;5055523;28;19954;-70
2022/10/06 03:52:37;;;;;;;;;;;12.70;99.90;;;;;;5055275;28;19940;-70
2022/10/06 03:55:04;;;;;;;;;;;12.70;99.90;;;;;;5042527;28;20106;-70
2022/10/06 03:57:32;;;;;;;;;;;12.60;99.90;;;;;;5043428;28;19933;-70
2022/10/06 03:59:59;;;;;;;;;;;12.60;99.90;;;;;;5062617;28;20298;-70
2022/10/06 04:02:26;;;;;;;;;;;12.60;99.90;;;;;;5043813;28;20396;-70
2022/10/06 04:04:54;;;;;;;;;;;12.50;99.90;;;;;;5042949;28;19933;-70
2022/10/06 04:07:21;;;;;;;;;;;12.50;99.90;;;;;;5040969;28;19932;-70
2022/10/06 04:09:48;;;;;;;;;;;12.50;99.90;;;;;;5047910;28;20449;-70
2022/10/06 04:12:16;;;;;;;;;;;12.40;99.90;;;;;;5038082;28;20033;-70
2022/10/06 04:14:44;;;;;;;;;;;12.40;99.90;;;;;;5041302;28;19990;-70
2022/10/06 04:17:11;;;;;;;;;;;12.40;99.90;;;;;;5043260;28;20425;-70
2022/10/06 04:19:40;;;;;;;;;;;12.40;99.90;;;;;;5042680;28;19932;-70
2022/10/06 04:22:07;;;;;;;;;;;12.40;99.90;;;;;;5043939;28;19932;-70
2022/10/06 04:24:34;;;;;;;;;;;12.40;99.90;;;;;;5042484;28;20431;-70
2022/10/06 04:29:46;;;;;;;;;;;12.40;99.90;;;;;;5041831;28;19928;-70
2022/10/06 04:32:14;;;;;;;;;;;12.40;99.90;;;;;;5043240;28;19932;-70
2022/10/06 04:34:41;;;;;;;;;;;12.40;99.90;;;;;;5042002;28;20002;-70
2022/10/06 04:37:09;;;;;;;;;;;12.30;99.90;;;;;;5041571;28;19932;-70
2022/10/06 04:39:37;;;;;;;;;;;12.40;99.90;;;;;;5042185;28;19944;-70
2022/10/06 04:42:03;;;;;;;;;;;12.40;99.90;;;;;;5040101;28;20019;-70
2022/10/06 04:44:31;;;;;;;;;;;12.40;99.90;;;;;;5041762;28;19932;-70
2022/10/06 04:47:02;;;;;;;;;;;12.40;99.90;;;;;;5042200;28;20010;-70
2022/10/06 04:49:30;;;;;;;;;;;12.30;99.90;;;;;;5039218;28;20352;-70
2022/10/06 04:51:57;;;;;;;;;;;12.30;99.90;;;;;;5052442;28;20140;-70
2022/10/06 04:54:24;;;;;;;;;;;12.30;99.90;;;;;;5037366;28;19933;-71
2022/10/06 04:56:56;;;;;;;;;;;12.30;99.90;;;;;;5037535;28;19933;-70
2022/10/06 05:00:21;;;;;;;;;;;12.30;99.90;;;;;;5039108;28;20209;-70
2022/10/06 05:02:14;;;;;;;;;;;12.30;99.90;;;;;;5037177;28;19932;-70
2022/10/06 05:04:42;;;;;;;;;;;12.30;99.90;;;;;;5039319;28;19940;-70
2022/10/06 05:07:09;;;;;;;;;;;12.30;99.90;;;;;;5037597;28;20057;-71
2022/10/06 05:09:36;;;;;;;;;;;12.30;99.90;;;;;;5038950;28;19936;-70
2022/10/06 05:12:03;;;;;;;;;;;12.30;99.90;;;;;;5038842;28;20426;-70
2022/10/06 05:14:32;;;;;;;;;;;12.30;99.90;;;;;;5037210;28;19932;-70
2022/10/06 05:16:58;;;;;;;;;;;12.30;99.90;;;;;;5050241;28;20424;-70
2022/10/06 05:19:26;;;;;;;;;;;12.30;99.90;;;;;;5038983;28;19955;-71
2022/10/06 05:21:54;;;;;;;;;;;12.20;99.90;;;;;;5040787;28;19933;-70
2022/10/06 05:24:24;;;;;;;;;;;12.20;99.90;;;;;;5041694;28;19933;-71
2022/10/06 05:26:52;;;;;;;;;;;12.20;99.90;;;;;;5041532;28;19940;-70
2022/10/06 05:29:19;;;;;;;;;;;12.10;99.90;;;;;;5040131;28;19932;-71
2022/10/06 05:31:46;;;;;;;;;;;12.10;99.90;;;;;;5040406;28;19940;-71
2022/10/06 05:34:14;;;;;;;;;;;12.00;99.90;;;;;;5040096;28;19932;-71
2022/10/06 05:36:42;;;;;;;;;;;11.90;99.90;;;;;;5040798;28;19933;-71
2022/10/06 05:39:11;;;;;;;;;;;11.90;99.90;;;;;;5036639;28;20025;-71
2022/10/06 05:41:47;;;;;;;;;;;13.50;99.90;;;;;;5038821;28;20400;-71
2022/10/06 05:44:14;;;;;;;;;;;11.70;99.90;;;;;;5042398;28;19924;-71
2022/10/06 05:46:43;;;;;;;;;;;11.60;99.90;;;;;;5041460;28;20320;-71
2022/10/06 05:49:11;;;;;;;;;;;11.60;99.90;;;;;;5062471;28;20355;-71
2022/10/06 05:51:43;;;;;;;;;;;11.50;99.90;;;;;;5061500;28;20008;-71
2022/10/06 05:54:28;;;;;;;;;;;11.50;99.90;;;;;;5038317;28;20014;-71
2022/10/06 05:56:54;;;;;;;;;;;11.40;99.90;;;;;;5045755;28;20564;-71
2022/10/06 05:59:22;;;;;;;;;;;11.40;99.90;;;;;;5045117;28;20022;-71
2022/10/06 06:01:50;;;;;;;;;;;11.40;99.90;;;;;;5044905;28;20282;-71
2022/10/06 06:04:26;;;;;;;;;;;11.30;99.90;;;;;;5029914;28;19972;-70
2022/10/06 06:06:57;;;;;;;;;;;11.30;99.90;;;;;;5035836;28;20160;-70
2022/10/06 06:09:25;;;;;;;;;;;11.30;99.90;;;;;;5029318;28;19924;-70
2022/10/06 06:11:59;;;;;;;;;;;11.30;99.90;;;;;;5038213;28;19936;-71
2022/10/06 06:17:21;;;;;;;;;;;11.80;99.90;;;;;;5037666;28;19928;-70
2022/10/06 06:19:48;;;;;;;;;;;11.40;99.90;;;;;;5046773;28;19929;-70
2022/10/06 06:22:17;;;;;;;;;;;11.50;99.90;;;;;;5035016;28;19928;-70
2022/10/06 06:24:45;;;;;;;;;;;12.00;99.90;;;;;;5037324;28;19940;-70
2022/10/06 06:27:12;;;;;;;;;;;11.50;99.90;;;;;;5061495;28;20019;-71
2022/10/06 06:29:40;;;;;;;;;;;11.60;99.90;;;;;;5037769;28;19932;-70
2022/10/06 06:32:07;;;;;;;;;;;11.80;99.90;;;;;;5040888;28;19947;-70
2022/10/06 06:34:34;;;;;;;;;;;11.90;99.90;;;;;;5039242;28;20305;-69
2022/10/06 06:37:02;;;;;;;;;;;12.20;99.90;;;;;;5060814;28;19928;-70
2022/10/06 06:39:30;;;;;;;;;;;12.60;99.90;;;;;;5029621;28;19932;-70
2022/10/06 06:41:57;;;;;;;;;;;13.10;99.90;;;;;;5028479;28;19939;-70
2022/10/06 06:44:50;;;;;;;;;;;13.60;99.90;;;;;;5045730;28;20074;-70
2022/10/06 06:47:39;;;;;;;;;;;14.30;99.90;;;;;;5050427;28;19977;-70
2022/10/06 06:50:09;;;;;;;;;;;14.80;99.90;;;;;;5037805;28;20370;-70
2022/10/06 06:52:36;;;;;;;;;;;15.30;99.90;;;;;;5031031;28;19985;-70
2022/10/06 06:55:05;;;;;;;;;;;15.80;99.90;;;;;;5036854;28;19935;-70
2022/10/06 06:57:33;;;;;;;;;;;16.30;99.90;;;;;;5034957;28;20151;-70
2022/10/06 07:00:01;;;;;;;;;;;18.00;99.90;;;;;;5032462;28;19929;-70
2022/10/06 07:02:29;;;;;;;;;;;17.10;99.90;;;;;;5035578;28;20005;-70
2022/10/06 07:04:56;;;;;;;;;;;17.50;99.90;;;;;;5037305;28;19940;-70
2022/10/06 07:07:23;;;;;;;;;;;19.20;99.90;;;;;;5036968;28;19990;-70
2022/10/06 07:09:49;;;;;;;;;;;18.20;99.90;;;;;;5056938;28;20456;-70
2022/10/06 07:12:20;;;;;;;;;;;18.40;99.90;;;;;;5033323;28;19950;-70
2022/10/06 07:25:55;;;;;;;;;;;19.20;99.90;;;;;;5059340;28;19931;-70
2022/10/06 07:28:23;;;;;;;;;;;19.60;99.90;;;;;;5051822;28;19934;-70
2022/10/06 07:30:51;;;;;;;;;;;19.40;99.90;;;;;;5052097;28;20270;-69
2022/10/06 07:33:20;;;;;;;;;;;19.50;99.90;;;;;;5039368;28;20381;-69
2022/10/06 07:35:48;;;;;;;;;;;19.60;99.90;;;;;;5047447;28;19994;-70
2022/10/06 07:38:18;;;;;;;;;;;19.70;99.90;;;;;;5044513;28;19944;-69
2022/10/06 07:40:53;;;;;;;;;;;19.90;99.90;;;;;;5056874;28;19932;-69
2022/10/06 07:43:20;;;;;;;;;;;20.10;99.90;;;;;;5041497;28;19937;-70
2022/10/06 07:45:50;;;;;;;;;;;20.10;99.90;;;;;;5031377;28;20056;-70
2022/10/06 07:48:35;;;;;;;;;;;20.30;99.90;;;;;;5037584;28;19963;-69
2022/10/06 07:51:05;;;;;;;;;;;20.20;99.90;;;;;;5042089;28;19940;-70
2022/10/06 07:53:36;;;;;;;;;;;20.20;99.90;;;;;;5039885;28;19929;-69
2022/10/06 07:56:26;;;;;;;;;;;20.20;99.90;;;;;;5048286;28;20516;-69
2022/10/06 07:58:57;;;;;;;;;;;20.00;99.90;;;;;;5040384;28;19935;-70
2022/10/06 08:01:28;;;;;;;;;;;18.90;99.90;;;;;;5061777;28;20409;-71
2022/10/06 08:03:54;;;;;;;;;;;20.10;99.90;;;;;;5057172;28;20172;-71
2022/10/06 08:06:22;;;;;;;;;;;20.20;99.90;;;;;;5057894;28;19940;-69
2022/10/06 08:08:51;;;;;;;;;;;20.20;99.90;;;;;;5058320;28;19932;-69
2022/10/06 08:11:18;;;;;;;;;;;21.60;99.90;;;;;;5059284;28;19955;-69
2022/10/06 08:13:46;;;;;;;;;;;20.50;99.90;;;;;;5057490;28;19936;-69
2022/10/06 08:16:14;;;;;;;;;;;20.60;99.90;;;;;;5050609;28;20187;-69
2022/10/06 08:18:42;;;;;;;;;;;20.60;99.90;;;;;;5050411;28;19924;-70
2022/10/06 08:21:10;;;;;;;;;;;20.60;99.90;;;;;;5047935;28;21589;-70
2022/10/06 08:23:39;;;;;;;;;;;20.50;99.90;;;;;;5048217;28;19990;-70
2022/10/06 08:26:06;;;;;;;;;;;20.50;99.90;;;;;;5049881;28;19955;-70
2022/10/06 08:28:34;;;;;;;;;;;20.40;99.90;;;;;;5046311;28;19933;-70
2022/10/06 08:31:03;;;;;;;;;;;20.20;99.90;;;;;;5034721;28;19933;-70
2022/10/06 08:33:30;;;;;;;;;;;20.10;99.90;;;;;;5059296;28;21928;-70
2022/10/06 08:36:03;;;;;;;;;;;19.90;99.90;;;;;;5038553;28;20412;-69
2022/10/06 08:38:30;;;;;;;;;;;19.80;99.90;;;;;;5038729;28;22238;-70
2022/10/06 08:40:56;;;;;;;;;;;19.60;99.90;;;;;;5028918;28;19929;-69
2022/10/06 08:43:23;;;;;;;;;;;19.70;99.90;;;;;;5021719;28;19924;-69
2022/10/06 08:45:52;;;;;;;;;;;20.20;99.90;;;;;;5027815;28;19978;-70
2022/10/06 08:48:23;;;;;;;;;;;19.70;99.90;;;;;;5037412;28;19930;-70
2022/10/06 08:50:53;;;;;;;;;;;19.60;99.90;;;;;;5032140;28;21448;-71
2022/10/06 08:53:26;;;;;;;;;;;19.60;99.90;;;;;;5032696;28;20582;-70
2022/10/06 08:55:54;;;;;;;;;;;19.60;99.90;;;;;;5031726;28;19935;-70
2022/10/06 08:58:29;;;;;;;;;;;19.20;99.90;;;;;;5026888;28;19932;-69
2022/10/06 09:00:56;;;;;;;;;;;19.10;99.90;;;;;;5035516;28;19929;-70
2022/10/06 09:03:26;;;;;;;;;;;19.00;99.90;;;;;;5043191;28;19929;-70
2022/10/06 09:05:56;;;;;;;;;;;18.90;99.90;;;;;;5040817;28;20651;-70
2022/10/06 09:08:32;;;;;;;;;;;18.70;99.90;;;;;;5040159;28;20340;-70
2022/10/06 09:11:05;;;;;;;;;;;18.40;99.90;;;;;;5050797;28;19990;-70
2022/10/06 09:13:34;;;;;;;;;;;17.80;99.90;;;;;;5054140;28;19990;-70
2022/10/06 09:16:06;;;;;;;;;;;17.70;99.90;;;;;;5059004;28;20389;-69
2022/10/06 09:18:36;;;;;;;;;;;17.40;99.90;;;;;;5064893;28;19936;-69
2022/10/06 09:21:03;;;;;;;;;;;18.70;99.90;;;;;;5047105;28;19929;-69
2022/10/06 09:26:16;;;;;;;;;;;17.20;99.90;;;;;;5045042;28;19928;-69
2022/10/06 09:28:44;;;;;;;;;;;17.20;99.90;;;;;;5054894;28;19964;-69
2022/10/06 09:31:18;;;;;;;;;;;17.20;99.90;;;;;;5059017;28;20155;-76
2022/10/06 09:33:45;;;;;;;;;;;17.20;99.90;;;;;;5039234;28;19954;-75
2022/10/06 09:36:12;;;;;;;;;;;17.30;99.90;;;;;;5060996;28;19935;-76
2022/10/06 09:38:52;;;;;;;;;;;18.30;99.90;;;;;;5060683;28;19928;-76
2022/10/06 09:41:21;;;;;;;;;;;17.50;99.90;;;;;;5057827;28;20027;-75
2022/10/06 09:43:51;;;;;;;;;;;17.50;99.90;;;;;;5066300;28;20029;-76
2022/10/06 09:46:19;;;;;;;;;;;17.60;99.90;;;;;;5059609;28;19932;-75
2022/10/06 09:48:45;;;;;;;;;;;17.60;99.90;;;;;;5058399;28;19932;-76
2022/10/06 09:51:13;;;;;;;;;;;18.10;99.90;;;;;;5058407;28;20402;-76
2022/10/06 09:53:40;;;;;;;;;;;17.90;99.90;;;;;;5058698;28;19962;-76
2022/10/06 09:56:12;;;;;;;;;;;18.00;99.90;;;;;;5061896;28;20187;-76
2022/10/06 09:58:39;;;;;;;;;;;18.10;99.90;;;;;;5064480;28;20294;-76
2022/10/06 10:01:07;;;;;;;;;;;18.20;99.90;;;;;;5055868;28;20010;-76
2022/10/06 10:03:42;;;;;;;;;;;18.30;99.90;;;;;;5066847;28;19947;-76
2022/10/06 10:06:20;;;;;;;;;;;18.60;99.90;;;;;;5062939;28;19982;-76
2022/10/06 10:08:47;;;;;;;;;;;18.90;99.90;;;;;;5056293;28;19928;-76
2022/10/06 10:14:03;;;;;;;;;;;19.30;99.90;;;;;;5055370;28;20153;-75
2022/10/06 10:16:33;;;;;;;;;;;19.50;99.90;;;;;;5051301;28;19924;-74
2022/10/06 10:19:00;;;;;;;;;;;19.50;99.90;;;;;;5057374;28;19932;-74
2022/10/06 10:21:29;;;;;;;;;;;19.50;99.90;;;;;;5068642;28;19936;-74
2022/10/06 10:23:56;;;;;;;;;;;19.50;99.90;;;;;;5060111;28;20023;-75
2022/10/06 10:26:28;;;;;;;;;;;19.50;99.90;;;;;;5062859;28;20347;-75
2022/10/06 10:29:01;;;;;;;;;;;19.70;99.90;;;;;;5059469;28;19929;-75
2022/10/06 10:31:34;;;;;;;;;;;19.80;99.90;;;;;;5063347;28;19933;-75
2022/10/06 10:34:06;;;;;;;;;;;19.80;99.90;;;;;;5046787;28;19978;-75
2022/10/06 10:36:34;;;;;;;;;;;19.70;99.90;;;;;;5047086;28;19932;-75
2022/10/06 10:39:01;;;;;;;;;;;19.70;99.90;;;;;;5046964;28;19925;-75
2022/10/06 10:41:41;;;;;;;;;;;19.90;99.90;;;;;;5060302;28;19982;-75
2022/10/06 10:44:09;;;;;;;;;;;20.00;99.90;;;;;;5067649;28;19929;-75
2022/10/06 10:46:38;;;;;;;;;;;20.10;99.90;;;;;;5056432;28;19924;-74
2022/10/06 10:49:09;;;;;;;;;;;20.10;99.90;;;;;;5055393;28;20306;-75
2022/10/06 10:51:37;;;;;;;;;;;20.70;99.90;;;;;;5064752;28;19932;-75
2022/10/06 10:54:08;;;;;;;;;;;20.10;99.90;;;;;;5067267;28;20401;-75
2022/10/06 10:56:36;;;;;;;;;;;20.00;99.90;;;;;;5060550;28;19969;-75
2022/10/06 10:59:07;;;;;;;;;;;19.70;99.90;;;;;;5054112;28;19985;-75
2022/10/06 11:01:38;;;;;;;;;;;19.60;99.90;;;;;;5060980;28;20031;-75
2022/10/06 11:04:09;;;;;;;;;;;19.60;99.90;;;;;;5058177;28;20313;-75
2022/10/06 11:06:53;;;;;;;;;;;19.70;99.90;;;;;;5066626;28;19986;-75
2022/10/06 11:09:22;;;;;;;;;;;19.80;99.90;;;;;;5034245;28;20035;-75
2022/10/06 11:11:55;;;;;;;;;;;19.90;99.90;;;;;;5058089;28;19936;-75
2022/10/06 11:14:29;;;;;;;;;;;20.10;99.90;;;;;;5053136;28;19932;-75
2022/10/06 11:17:01;;;;;;;;;;;20.20;99.90;;;;;;5058827;28;20023;-75
2022/10/06 11:19:33;;;;;;;;;;;20.30;99.90;;;;;;5057695;28;21271;-75
2022/10/06 11:22:02;;;;;;;;;;;20.30;99.90;;;;;;5036718;28;19964;-76
2022/10/06 11:24:32;;;;;;;;;;;20.40;99.90;;;;;;5057927;28;19936;-75
2022/10/06 11:27:16;;;;;;;;;;;20.60;99.90;;;;;;5061864;28;19933;-75
2022/10/06 11:29:47;;;;;;;;;;;20.60;99.90;;;;;;5046504;28;19966;-76
2022/10/06 11:32:23;;;;;;;;;;;20.80;99.90;;;;;;5058155;28;20833;-75
2022/10/06 11:34:51;;;;;;;;;;;20.70;99.90;;;;;;5057699;28;19932;-75
2022/10/06 11:37:23;;;;;;;;;;;20.60;99.90;;;;;;5063512;28;19929;-76
2022/10/06 11:39:53;;;;;;;;;;;20.70;99.90;;;;;;5072584;28;19925;-76
2022/10/06 11:42:23;;;;;;;;;;;20.70;99.90;;;;;;5067430;28;19928;-75
2022/10/06 11:44:54;;;;;;;;;;;20.60;99.90;;;;;;5066619;28;19928;-75
2022/10/06 11:47:24;;;;;;;;;;;20.60;99.90;;;;;;5070209;28;19928;-75
2022/10/06 11:49:52;;;;;;;;;;;20.50;99.90;;;;;;5067762;28;19924;-75
2022/10/06 11:52:36;;;;;;;;;;;20.50;99.90;;;;;;5062015;28;19925;-75
2022/10/06 11:55:13;;;;;;;;;;;20.50;99.90;;;;;;5070725;28;19963;-75
2022/10/06 11:57:55;;;;;;;;;;;20.60;99.90;;;;;;5058707;28;19939;-76
2022/10/06 12:00:40;;;;;;;;;;;20.60;99.90;;;;;;5050097;28;20495;-74
2022/10/06 12:03:21;;;;;;;;;;;20.50;99.90;;;;;;5034641;28;19933;-75
2022/10/06 12:05:50;;;;;;;;;;;20.50;99.90;;;;;;5058124;28;19932;-75
2022/10/06 12:08:16;;;;;;;;;;;20.50;99.90;;;;;;5050702;28;19929;-75
2022/10/06 12:10:48;;;;;;;;;;;20.50;99.90;;;;;;5050131;28;19929;-75
2022/10/06 12:13:18;;;;;;;;;;;20.60;99.90;;;;;;5058131;28;19994;-75
2022/10/06 12:16:12;;;;;;;;;;;20.60;99.90;;;;;;5069218;28;20375;-75
2022/10/06 12:18:44;;;;;;;;;;;20.70;99.90;;;;;;5019464;28;19955;-75
2022/10/06 12:21:18;;;;;;;;;;;20.70;99.90;;;;;;5062569;28;19924;-75
2022/10/06 12:23:51;;;;;;;;;;;20.70;99.90;;;;;;5060611;28;19929;-75
2022/10/06 12:26:23;;;;;;;;;;;20.60;99.90;;;;;;5061522;28;19935;-75
2022/10/06 12:28:51;;;;;;;;;;;20.50;99.90;;;;;;5067357;28;19928;-74
2022/10/06 12:31:26;;;;;;;;;;;20.40;99.90;;;;;;5068158;28;19925;-74
2022/10/06 12:33:53;;;;;;;;;;;20.40;99.90;;;;;;5075138;28;19994;-73
2022/10/06 12:36:22;;;;;;;;;;;20.40;99.90;;;;;;5064192;28;20434;-74
2022/10/06 12:39:03;;;;;;;;;;;20.40;99.90;;;;;;5062595;28;20009;-74
2022/10/06 12:41:49;;;;;;;;;;;20.50;99.90;;;;;;5062349;28;19939;-74
2022/10/06 12:44:22;;;;;;;;;;;20.60;99.90;;;;;;5056953;28;19944;-74
2022/10/06 12:46:49;;;;;;;;;;;20.70;99.90;;;;;;5062498;28;19932;-75
2022/10/06 12:49:30;;;;;;;;;;;20.70;99.90;;;;;;5057305;28;19990;-75
2022/10/06 12:52:04;;;;;;;;;;;20.70;99.90;;;;;;5060237;28;19933;-75
2022/10/06 12:54:33;;;;;;;;;;;20.70;99.90;;;;;;5059502;28;19963;-76
2022/10/06 12:57:02;;;;;;;;;;;20.70;99.90;;;;;;5060971;28;19932;-75
2022/10/06 12:59:32;;;;;;;;;;;20.70;99.90;;;;;;5043704;28;19939;-76
2022/10/06 13:02:00;;;;;;;;;;;20.70;99.90;;;;;;5061521;28;20354;-75
2022/10/06 13:04:31;;;;;;;;;;;20.80;99.90;;;;;;5058528;28;19940;-76
2022/10/06 13:06:59;;;;;;;;;;;20.80;99.90;;;;;;5040873;28;19932;-76
2022/10/06 13:09:26;;;;;;;;;;;20.90;99.90;;;;;;5045036;28;19932;-77
2022/10/06 13:11:54;;;;;;;;;;;20.80;99.90;;;;;;5060877;28;20611;-77
2022/10/06 13:14:22;;;;;;;;;;;20.70;99.90;;;;;;5070077;28;19935;-77
2022/10/06 13:16:49;;;;;;;;;;;20.70;99.90;;;;;;5050860;28;20693;-76
2022/10/06 13:19:17;;;;;;;;;;;20.60;99.90;;;;;;5075578;28;19977;-76
2022/10/06 13:21:44;;;;;;;;;;;20.60;99.90;;;;;;5063457;28;19935;-77
2022/10/06 13:24:13;;;;;;;;;;;20.60;99.90;;;;;;5059391;28;19941;-77
2022/10/06 13:26:40;;;;;;;;;;;20.60;99.90;;;;;;5061460;28;20120;-77
2022/10/06 13:29:18;;;;;;;;;;;20.60;99.90;;;;;;5061097;28;19984;-76
2022/10/06 13:31:46;;;;;;;;;;;20.70;99.90;;;;;;5040681;28;19933;-76
2022/10/06 13:34:14;;;;;;;;;;;20.60;99.90;;;;;;5061317;28;19939;-76
2022/10/06 13:36:41;;;;;;;;;;;20.60;99.90;;;;;;5061259;28;19932;-77
2022/10/06 13:39:12;;;;;;;;;;;20.50;99.90;;;;;;5058866;28;20001;-76
2022/10/06 13:41:44;;;;;;;;;;;20.60;99.90;;;;;;5059099;28;19956;-78
2022/10/06 13:44:23;;;;;;;;;;;20.60;99.90;;;;;;5059458;28;19929;-78
2022/10/06 13:46:51;;;;;;;;;;;20.70;99.90;;;;;;5058738;28;19985;-77
2022/10/06 13:49:21;;;;;;;;;;;20.70;99.90;;;;;;5062587;28;19936;-75
2022/10/06 13:51:49;;;;;;;;;;;20.60;99.90;;;;;;5058868;28;19932;-76
2022/10/06 13:54:22;;;;;;;;;;;20.50;99.90;;;;;;5060241;28;20833;-77
2022/10/06 13:56:50;;;;;;;;;;;20.50;99.90;;;;;;5058907;28;20662;-77
2022/10/06 13:59:37;;;;;;;;;;;20.40;99.90;;;;;;5060858;28;19940;-76
2022/10/06 14:02:25;;;;;;;;;;;20.60;99.90;;;;;;5054041;28;19932;-77
2022/10/06 14:05:10;;;;;;;;;;;20.70;99.90;;;;;;5061821;28;20011;-77
2022/10/06 14:07:42;;;;;;;;;;;20.90;99.90;;;;;;5039255;28;20773;-76
2022/10/06 14:10:14;;;;;;;;;;;20.60;99.90;;;;;;5057815;28;19932;-77
2022/10/06 14:12:43;;;;;;;;;;;20.50;99.90;;;;;;5055871;28;19962;-77
2022/10/06 14:15:16;;;;;;;;;;;20.40;99.90;;;;;;5058453;28;19929;-77
2022/10/06 14:17:43;;;;;;;;;;;20.40;99.90;;;;;;5054635;28;19928;-77
2022/10/06 14:20:24;;;;;;;;;;;20.30;99.90;;;;;;5057523;28;19936;-77
2022/10/06 14:22:51;;;;;;;;;;;20.30;99.90;;;;;;5055086;28;20022;-77
2022/10/06 14:25:18;;;;;;;;;;;20.30;99.90;;;;;;5050519;28;19955;-77
2022/10/06 14:27:46;;;;;;;;;;;20.30;99.90;;;;;;5045636;28;19939;-77
2022/10/06 14:30:13;;;;;;;;;;;20.30;99.90;;;;;;5050430;28;19932;-77
2022/10/06 14:32:39;;;;;;;;;;;20.20;99.90;;;;;;5060691;28;19973;-77
2022/10/06 14:35:10;;;;;;;;;;;20.20;99.90;;;;;;5055703;28;19928;-77
2022/10/06 14:37:37;;;;;;;;;;;20.10;99.90;;;;;;5059302;28;19936;-77
2022/10/06 14:40:04;;;;;;;;;;;20.00;99.90;;;;;;5052980;28;20465;-76
2022/10/06 14:42:31;;;;;;;;;;;19.90;99.90;;;;;;5054582;28;20387;-77
2022/10/06 14:44:59;;;;;;;;;;;19.90;99.90;;;;;;5060021;28;20317;-77
2022/10/06 14:47:26;;;;;;;;;;;19.80;99.90;;;;;;5053495;28;20417;-76
2022/10/06 14:49:53;;;;;;;;;;;19.70;99.90;;;;;;5062867;28;20302;-76
2022/10/06 14:52:20;;;;;;;;;;;19.70;99.90;;;;;;5066714;28;19929;-76
2022/10/06 14:54:47;;;;;;;;;;;19.60;99.90;;;;;;5055000;28;20019;-76